CheckWX is a tool to help pilots better visualize weather data.  It is not intended as a substitute for an official pre-flight weather briefing.

02:54:04 UTC

KLLJ METAR
Challis Airport
Challis, Idaho, USA
Current

59 mins ago

KLLJ 240155Z AUTO 30004KT 10SM BKN060 OVC070 09/01 A2998 RMK AO2 SLP146 T00890006
Observed
Mar-24 @ 01:55 UTC
Wind
  • 300° at 4 KTS
Visibility
10 SM
Flight Rules
VFR
Cloud Levels
  • Broken at 6,000' AGL
  • Overcast at 7,000' AGL
Temperature
C / 48°F
Dewpoint
C / 34°F
Humidity
58%
Altimeter
29.98" Hg
Pressure
1014.6 hPa
Previous

2 hours ago

KLLJ 240055Z AUTO 15008KT 10SM OVC065 10/M01 A2997 RMK AO2 SLP137 T01001006
Observed
Mar-24 @ 00:55 UTC
Wind
  • 150° at 8 KTS
Visibility
10 SM
Flight Rules
VFR
Cloud Levels
  • Overcast at 6,500' AGL
Temperature
10°C / 50°F
Dewpoint
-1°C / 30°F
Humidity
47%
Altimeter
29.97" Hg
Pressure
1013.7 hPa
Previous

3 hours ago

KLLJ 232355Z AUTO 16011G19KT 10SM FEW070 OVC100 12/M01 A2995 RMK AO2 SLP130 T01171011 10144 20094 56005
Observed
Mar-23 @ 23:55 UTC
Wind
  • 160° at 11 KTS
  • Gusting to 19 KTS
Visibility
10 SM
Flight Rules
VFR
Cloud Levels
  • Few at 7,000' AGL
  • Overcast at 10,000' AGL
Temperature
12°C / 54°F
Dewpoint
-1°C / 30°F
Humidity
41%
Altimeter
29.95" Hg
Pressure
1013 hPa